createdAt,value
2018-03-29T00:00:44.002Z,98997.94
2018-03-29T00:03:09.786Z,98999.56
2018-03-29T00:05:35.583Z,99002.55
2018-03-29T00:08:01.368Z,99010.95
2018-03-29T00:10:27.168Z,99005.16
2018-03-29T00:12:52.979Z,99009.75
2018-03-29T00:15:18.788Z,99007.14
2018-03-29T00:17:44.924Z,99000.97
2018-03-29T00:20:10.717Z,98999.14
2018-03-29T00:22:36.507Z,99003.44
2018-03-29T00:25:02.463Z,99008.91
2018-03-29T00:27:28.250Z,99011.30
2018-03-29T00:29:54.056Z,99015.69
2018-03-29T00:32:19.875Z,99013.20
2018-03-29T00:34:45.679Z,99012.41
2018-03-29T00:37:11.480Z,99022.38
2018-03-29T00:39:37.298Z,99017.05
2018-03-29T00:42:03.087Z,99019.64
2018-03-29T00:44:28.894Z,99024.83
2018-03-29T00:46:54.678Z,99026.05
2018-03-29T00:49:21.274Z,99030.27
2018-03-29T00:51:47.091Z,99026.08
2018-03-29T00:54:12.882Z,99031.13
2018-03-29T00:56:38.681Z,99026.04
2018-03-29T00:59:04.491Z,99031.22
2018-03-29T01:01:30.280Z,99027.20
2018-03-29T01:03:56.064Z,99025.37
2018-03-29T01:06:21.864Z,99031.25
2018-03-29T01:08:47.654Z,99029.43
2018-03-29T01:11:13.499Z,99029.04
2018-03-29T01:13:39.284Z,99032.50
2018-03-29T01:16:05.091Z,99032.84
2018-03-29T01:18:30.894Z,99031.09
2018-03-29T01:20:56.779Z,99032.06
2018-03-29T01:23:22.570Z,99025.98
2018-03-29T01:25:48.384Z,99032.13
2018-03-29T01:28:14.203Z,99027.48
2018-03-29T01:30:40.008Z,99028.73
2018-03-29T01:33:05.786Z,99034.52
2018-03-29T01:35:31.573Z,99033.20
2018-03-29T01:37:57.372Z,99034.53
2018-03-29T01:40:23.165Z,99040.48
2018-03-29T01:42:48.971Z,99044.40
2018-03-29T01:45:15.109Z,99044.19
2018-03-29T01:47:40.970Z,99040.09
2018-03-29T01:50:06.774Z,99050.69
2018-03-29T01:52:32.587Z,99049.52
2018-03-29T01:54:58.404Z,99048.93
2018-03-29T01:57:24.211Z,99054.39
2018-03-29T01:59:50.011Z,99050.49
2018-03-29T02:02:15.811Z,99051.19
2018-03-29T02:04:41.605Z,99065.43
2018-03-29T02:07:07.421Z,99062.65
2018-03-29T02:09:33.236Z,99065.34
2018-03-29T02:11:59.028Z,99062.10
2018-03-29T02:14:24.855Z,99070.62
2018-03-29T02:16:50.655Z,99070.27
2018-03-29T02:19:16.462Z,99069.44
2018-03-29T02:21:42.270Z,99073.29
2018-03-29T02:24:08.114Z,99071.78
2018-03-29T02:26:33.946Z,99081.74
2018-03-29T02:28:59.729Z,99077.87
2018-03-29T02:31:25.539Z,99080.81
2018-03-29T02:33:51.364Z,99077.56
2018-03-29T02:36:17.162Z,99081.30
2018-03-29T02:38:42.974Z,99076.54
2018-03-29T02:41:08.784Z,99081.56
2018-03-29T02:43:34.559Z,99085.40
2018-03-29T02:46:00.355Z,99088.49
2018-03-29T02:48:26.168Z,99091.86
2018-03-29T02:50:51.986Z,99095.90
2018-03-29T02:53:17.801Z,99098.30
2018-03-29T02:55:43.621Z,99105.28
2018-03-29T02:58:09.415Z,99110.61
2018-03-29T03:00:35.268Z,99107.77
2018-03-29T03:03:01.211Z,99106.05
2018-03-29T03:05:26.999Z,99100.29
2018-03-29T03:07:52.803Z,99107.23
2018-03-29T03:10:18.591Z,99113.30
2018-03-29T03:12:44.387Z,99108.64
2018-03-29T03:15:10.169Z,99113.68
2018-03-29T03:17:35.958Z,99119.18
2018-03-29T03:20:01.798Z,99112.91
2018-03-29T03:22:27.575Z,99116.69
2018-03-29T03:24:53.365Z,99119.53
2018-03-29T03:27:19.180Z,99122.34
2018-03-29T03:29:44.966Z,99130.50
2018-03-29T03:32:10.746Z,99131.91
2018-03-29T03:34:36.532Z,99133.17
2018-03-29T03:37:02.366Z,99134.18
2018-03-29T03:39:28.157Z,99143.36
2018-03-29T03:41:53.939Z,99143.90
2018-03-29T03:44:19.736Z,99148.58
2018-03-29T03:46:45.543Z,99148.05
2018-03-29T03:49:11.321Z,99143.05
2018-03-29T03:51:37.130Z,99148.84
2018-03-29T03:54:02.947Z,99157.31
2018-03-29T03:56:28.749Z,99160.19
2018-03-29T03:58:54.543Z,99164.70
2018-03-29T04:01:20.370Z,99162.33
2018-03-29T04:03:46.195Z,99168.17
2018-03-29T04:06:12.016Z,99164.89
2018-03-29T04:08:37.799Z,99172.88
2018-03-29T04:11:03.598Z,99166.78
2018-03-29T04:13:29.394Z,99174.72
2018-03-29T04:15:55.198Z,99183.02
2018-03-29T04:18:21.016Z,99185.56
2018-03-29T04:20:46.804Z,99194.67
2018-03-29T04:23:12.595Z,99188.78
2018-03-29T04:25:38.399Z,99195.16
2018-03-29T04:28:04.204Z,99202.56
2018-03-29T04:30:30.095Z,99205.12
2018-03-29T04:32:55.877Z,99209.22
2018-03-29T04:35:21.680Z,99216.00
2018-03-29T04:37:47.489Z,99215.20
2018-03-29T04:40:13.275Z,99214.16
2018-03-29T04:42:39.066Z,99221.44
2018-03-29T04:45:04.858Z,99224.48
2018-03-29T04:47:30.920Z,99231.39
2018-03-29T04:49:56.714Z,99236.81
2018-03-29T04:52:22.534Z,99235.10
2018-03-29T04:54:48.333Z,99246.45
2018-03-29T04:57:14.128Z,99250.31
2018-03-29T04:59:40.250Z,99231.69
2018-03-29T05:02:06.043Z,99239.19
2018-03-29T05:04:31.837Z,99239.37
2018-03-29T05:06:57.654Z,99242.79
2018-03-29T05:09:23.443Z,99246.22
2018-03-29T05:11:49.252Z,99243.99
2018-03-29T05:14:15.043Z,99252.20
2018-03-29T05:16:40.832Z,99254.05
2018-03-29T05:19:06.667Z,99261.87
2018-03-29T05:21:32.475Z,99265.62
2018-03-29T05:23:58.267Z,99269.44
2018-03-29T05:26:24.093Z,99270.59
2018-03-29T05:28:49.879Z,99284.73
2018-03-29T05:31:15.684Z,99278.81
2018-03-29T05:33:41.502Z,99288.83
2018-03-29T05:36:07.288Z,99289.77
2018-03-29T05:38:33.094Z,99295.62
2018-03-29T05:40:59.196Z,99300.47
2018-03-29T05:43:24.985Z,99299.30
2018-03-29T05:45:50.796Z,99306.67
2018-03-29T05:48:16.614Z,99304.80
2018-03-29T05:50:42.412Z,99314.50
2018-03-29T05:53:08.202Z,99313.55
2018-03-29T05:55:34.017Z,99319.71
2018-03-29T05:57:59.815Z,99328.19
2018-03-29T06:00:25.598Z,99335.05
2018-03-29T06:02:51.403Z,99326.91
2018-03-29T06:05:17.195Z,99332.81
2018-03-29T06:07:43.003Z,99333.38
2018-03-29T06:10:08.808Z,99334.28
2018-03-29T06:12:34.607Z,99340.54
2018-03-29T06:15:06.513Z,99344.22
2018-03-29T06:17:32.310Z,99350.13
2018-03-29T06:19:58.129Z,99359.56
2018-03-29T06:22:23.952Z,99362.46
2018-03-29T06:24:49.740Z,99365.12
2018-03-29T06:27:15.536Z,99368.83
2018-03-29T06:29:41.335Z,99365.34
2018-03-29T06:32:07.122Z,99361.17
2018-03-29T06:34:32.923Z,99369.59
2018-03-29T06:36:58.739Z,99378.52
2018-03-29T06:39:24.564Z,99385.34
2018-03-29T06:41:50.366Z,99382.12
2018-03-29T06:44:16.142Z,99395.70
2018-03-29T06:46:41.950Z,99395.22
2018-03-29T06:49:08.131Z,99405.78
2018-03-29T06:51:33.907Z,99411.11
2018-03-29T06:53:59.699Z,99406.59
2018-03-29T06:56:25.519Z,99409.75
2018-03-29T06:58:51.333Z,99420.61
2018-03-29T07:01:17.136Z,99415.36
2018-03-29T07:03:42.935Z,99417.12
2018-03-29T07:06:08.746Z,99415.64
2018-03-29T07:08:34.544Z,99426.67
2018-03-29T07:11:00.338Z,99429.07
2018-03-29T07:13:26.131Z,99431.91
2018-03-29T07:15:51.916Z,99426.84
2018-03-29T07:18:17.747Z,99438.73
2018-03-29T07:20:43.555Z,99441.08
2018-03-29T07:23:09.343Z,99446.95
2018-03-29T07:25:35.145Z,99446.91
2018-03-29T07:28:00.937Z,99450.97
2018-03-29T07:30:26.761Z,99451.07
2018-03-29T07:32:52.600Z,99455.16
2018-03-29T07:35:18.405Z,99451.47
2018-03-29T07:37:44.219Z,99460.27
2018-03-29T07:40:10.318Z,99457.01
2018-03-29T07:42:36.118Z,99455.70
2018-03-29T07:45:01.905Z,99460.69
2018-03-29T07:47:27.722Z,99465.73
2018-03-29T07:49:53.507Z,99464.61
2018-03-29T07:52:19.287Z,99472.87
2018-03-29T07:54:45.094Z,99473.56
2018-03-29T07:57:10.885Z,99469.20
2018-03-29T07:59:36.679Z,99477.13
2018-03-29T08:02:02.508Z,99479.36
2018-03-29T08:04:28.295Z,99476.59
2018-03-29T08:06:54.129Z,99484.60
2018-03-29T08:09:19.917Z,99482.51
2018-03-29T08:11:45.763Z,99488.19
2018-03-29T08:14:11.576Z,99485.68
2018-03-29T08:16:37.372Z,99493.82
2018-03-29T08:19:03.172Z,99493.16
2018-03-29T08:21:29.018Z,99503.33
2018-03-29T08:23:54.804Z,99509.80
2018-03-29T08:26:20.587Z,99506.94
2018-03-29T08:28:46.407Z,99512.36
2018-03-29T08:31:12.225Z,99509.98
2018-03-29T08:33:38.018Z,99512.52
2018-03-29T08:36:03.820Z,99521.79
2018-03-29T08:38:29.879Z,99513.05
2018-03-29T08:40:55.728Z,99519.63
2018-03-29T08:43:21.514Z,99519.28
2018-03-29T08:45:47.323Z,99523.66
2018-03-29T08:48:13.110Z,99529.13
2018-03-29T08:50:38.903Z,99528.13
2018-03-29T08:53:05.066Z,99535.83
2018-03-29T08:55:30.860Z,99540.65
2018-03-29T08:57:56.644Z,99547.65
2018-03-29T09:00:22.449Z,99546.78
2018-03-29T09:02:48.222Z,99549.70
2018-03-29T09:05:14.035Z,99563.41
2018-03-29T09:07:39.851Z,99556.56
2018-03-29T09:10:05.643Z,99566.04
2018-03-29T09:12:31.440Z,99566.52
2018-03-29T09:14:57.251Z,99566.97
2018-03-29T09:17:23.035Z,99571.07
2018-03-29T09:19:48.863Z,99572.25
2018-03-29T09:22:14.707Z,99581.07
2018-03-29T09:24:40.486Z,99575.41
2018-03-29T09:27:06.301Z,99593.18
2018-03-29T09:29:32.103Z,99584.64
2018-03-29T09:31:57.884Z,99580.73
2018-03-29T09:34:23.679Z,99579.94
2018-03-29T09:36:49.478Z,99585.03
2018-03-29T09:39:15.267Z,99587.30
2018-03-29T09:41:41.318Z,99592.50
2018-03-29T09:44:07.108Z,99600.08
2018-03-29T09:46:32.900Z,99599.67
2018-03-29T09:48:58.881Z,99600.21
2018-03-29T09:51:24.674Z,99596.06
2018-03-29T09:53:50.444Z,99604.59
2018-03-29T09:56:16.254Z,99607.63
2018-03-29T09:58:42.040Z,99602.25
2018-03-29T10:01:08.659Z,99611.80
2018-03-29T10:03:38.308Z,99612.59
2018-03-29T10:06:04.095Z,99615.45
2018-03-29T10:08:29.888Z,99624.39
2018-03-29T10:10:55.723Z,99620.98
2018-03-29T10:13:21.506Z,99628.25
2018-03-29T10:15:47.314Z,99621.99
2018-03-29T10:18:13.120Z,99627.36
2018-03-29T10:20:38.939Z,99629.55
2018-03-29T10:23:04.834Z,99617.31
2018-03-29T10:25:31.447Z,99630.04
2018-03-29T10:27:57.232Z,99618.96
2018-03-29T10:30:23.020Z,99632.11
2018-03-29T10:32:48.828Z,99635.59
2018-03-29T10:35:14.618Z,99638.42
2018-03-29T10:37:40.414Z,99649.89
2018-03-29T10:40:07.036Z,99651.68
2018-03-29T10:42:32.838Z,99649.43
2018-03-29T10:44:58.631Z,99661.70
2018-03-29T10:47:24.418Z,99664.64
2018-03-29T10:49:50.261Z,99657.80
2018-03-29T10:52:16.046Z,99659.92
2018-03-29T10:54:41.839Z,99662.48
2018-03-29T10:57:07.619Z,99670.44
2018-03-29T10:59:33.445Z,99663.30
2018-03-29T11:01:59.242Z,99679.55
2018-03-29T11:04:25.090Z,99680.25
2018-03-29T11:06:50.977Z,99688.67
2018-03-29T11:09:16.734Z,99688.80
2018-03-29T11:11:42.539Z,99693.19
2018-03-29T11:14:08.481Z,99699.95
2018-03-29T11:16:34.241Z,99694.49
2018-03-29T11:19:00.037Z,99693.84
2018-03-29T11:21:25.840Z,99685.39
2018-03-29T11:23:51.628Z,99702.01
2018-03-29T11:26:17.435Z,99691.59
2018-03-29T11:28:43.243Z,99704.17
2018-03-29T11:31:09.037Z,99701.73
2018-03-29T11:33:34.838Z,99713.52
2018-03-29T11:36:00.639Z,99712.51
2018-03-29T11:38:26.426Z,99720.38
2018-03-29T11:40:52.252Z,99727.06
2018-03-29T11:43:18.042Z,99721.72
2018-03-29T11:45:43.815Z,99726.94
2018-03-29T11:48:09.840Z,99732.98
2018-03-29T11:50:35.641Z,99735.52
2018-03-29T11:53:01.443Z,99739.05
2018-03-29T11:55:27.257Z,99741.22
2018-03-29T11:57:53.032Z,99738.61
2018-03-29T12:00:18.863Z,99733.49
2018-03-29T12:02:44.683Z,99743.55
2018-03-29T12:05:10.472Z,99737.44
2018-03-29T12:07:36.262Z,99738.96
2018-03-29T12:10:02.106Z,99739.59
2018-03-29T12:12:27.878Z,99741.42
2018-03-29T12:14:53.659Z,99746.54
2018-03-29T12:17:19.637Z,99740.75
2018-03-29T12:19:45.446Z,99750.18
2018-03-29T12:22:11.231Z,99743.09
2018-03-29T12:24:37.045Z,99739.44
2018-03-29T12:27:02.843Z,99750.47
2018-03-29T12:29:28.698Z,99742.55
2018-03-29T12:31:54.629Z,99746.53
2018-03-29T12:34:20.428Z,99757.84
2018-03-29T12:36:46.234Z,99752.14
2018-03-29T12:39:12.048Z,99747.23
2018-03-29T12:41:37.838Z,99752.11
2018-03-29T12:44:03.755Z,99755.49
2018-03-29T12:46:29.537Z,99757.57
2018-03-29T12:48:55.327Z,99755.97
2018-03-29T12:51:21.127Z,99757.48
2018-03-29T12:53:47.054Z,99760.98
2018-03-29T12:56:20.875Z,99764.11
2018-03-29T12:58:46.671Z,99769.92
2018-03-29T13:01:12.470Z,99771.89
2018-03-29T13:03:38.272Z,99773.79
2018-03-29T13:06:04.112Z,99764.25
2018-03-29T13:08:29.911Z,99765.43
2018-03-29T13:10:55.720Z,99767.03
2018-03-29T13:13:21.535Z,99766.11
2018-03-29T13:15:47.337Z,99770.81
2018-03-29T13:18:13.198Z,99771.61
2018-03-29T13:20:39.009Z,99764.96
2018-03-29T13:23:04.821Z,99769.89
2018-03-29T13:25:30.616Z,99771.20
2018-03-29T13:27:56.647Z,99783.66
2018-03-29T13:30:22.458Z,99778.34
2018-03-29T13:32:48.245Z,99779.36
2018-03-29T13:35:14.317Z,99781.23
2018-03-29T13:37:40.154Z,99781.26
2018-03-29T13:40:05.943Z,99776.55
2018-03-29T13:42:31.741Z,99774.42
2018-03-29T13:44:57.536Z,99772.84
2018-03-29T13:47:23.314Z,99772.42
2018-03-29T13:49:49.358Z,99788.05
2018-03-29T13:52:15.167Z,99784.05
2018-03-29T13:54:40.975Z,99789.17
2018-03-29T13:57:06.983Z,99781.41
2018-03-29T13:59:32.809Z,99781.23
2018-03-29T14:01:58.596Z,99783.83
2018-03-29T14:04:24.412Z,99787.55
2018-03-29T14:06:50.219Z,99790.99
2018-03-29T14:09:16.008Z,99787.30
2018-03-29T14:11:41.795Z,99793.52
2018-03-29T14:14:07.584Z,99791.34
2018-03-29T14:16:33.402Z,99788.51
2018-03-29T14:18:59.187Z,99781.02
2018-03-29T14:21:24.987Z,99793.70
2018-03-29T14:23:50.983Z,99796.70
2018-03-29T14:26:16.778Z,99790.81
2018-03-29T14:28:42.570Z,99797.73
2018-03-29T14:31:08.412Z,99803.13
2018-03-29T14:33:34.210Z,99795.19
2018-03-29T14:36:00.005Z,99798.32
2018-03-29T14:55:29.864Z,99806.78
2018-03-29T14:57:55.668Z,99815.27
2018-03-29T15:00:21.459Z,99806.40
2018-03-29T15:02:47.276Z,99808.45
2018-03-29T15:05:13.078Z,99803.67
2018-03-29T15:07:38.863Z,99804.98
2018-03-29T15:10:04.699Z,99803.06
2018-03-29T15:12:30.489Z,99806.59
2018-03-29T15:14:56.261Z,99801.55
2018-03-29T15:17:22.076Z,99802.64
2018-03-29T15:19:47.851Z,99805.50
2018-03-29T15:22:13.643Z,99808.61
2018-03-29T15:24:39.481Z,99807.61
2018-03-29T15:27:05.299Z,99813.41
2018-03-29T15:29:31.135Z,99808.50
2018-03-29T15:31:57.167Z,99813.45
2018-03-29T15:34:24.053Z,99814.84
2018-03-29T15:36:49.932Z,99814.48
2018-03-29T15:39:15.729Z,99817.33
2018-03-29T15:41:41.530Z,99820.55
2018-03-29T15:44:07.363Z,99823.02
2018-03-29T15:46:33.174Z,99819.45
2018-03-29T15:48:58.960Z,99825.13
2018-03-29T15:51:25.048Z,99823.34
2018-03-29T15:53:50.882Z,99836.65
2018-03-29T15:56:16.670Z,99838.19
2018-03-29T15:58:42.514Z,99833.61
2018-03-29T16:01:08.340Z,99838.86
2018-03-29T16:03:34.139Z,99841.27
2018-03-29T16:05:59.933Z,99846.25
2018-03-29T16:08:25.874Z,99841.77
2018-03-29T16:10:51.673Z,99848.37
2018-03-29T16:13:17.473Z,99847.36
2018-03-29T16:15:43.264Z,99853.36
2018-03-29T16:18:09.060Z,99849.77
2018-03-29T16:20:34.835Z,99855.03
2018-03-29T16:23:00.667Z,99853.45
2018-03-29T16:25:26.458Z,99856.80
2018-03-29T16:27:52.231Z,99865.73
2018-03-29T16:30:18.352Z,99861.65
2018-03-29T16:32:44.164Z,99871.73
2018-03-29T16:35:09.960Z,99876.27
2018-03-29T16:37:35.772Z,99882.61
2018-03-29T16:40:01.555Z,99889.02
2018-03-29T16:42:27.375Z,99889.73
2018-03-29T16:44:53.362Z,99896.75
2018-03-29T16:47:19.199Z,99893.52
2018-03-29T16:49:44.999Z,99898.33
2018-03-29T16:52:10.874Z,99904.77
2018-03-29T16:54:37.634Z,99906.59
2018-03-29T16:57:03.443Z,99907.26
2018-03-29T16:59:30.310Z,99912.14
2018-03-29T17:01:56.122Z,99918.48
2018-03-29T17:04:22.009Z,99922.49
2018-03-29T17:06:47.831Z,99927.45
2018-03-29T17:09:13.632Z,99931.02
2018-03-29T17:11:39.429Z,99933.13
2018-03-29T17:14:06.297Z,99936.31
2018-03-29T17:16:32.168Z,99942.39
2018-03-29T17:18:58.494Z,99936.14
2018-03-29T17:21:25.122Z,99931.45
2018-03-29T17:23:50.945Z,99937.73
2018-03-29T17:26:17.659Z,99939.69
2018-03-29T17:28:43.461Z,99939.34
2018-03-29T17:31:10.215Z,99946.34
2018-03-29T17:33:36.016Z,99940.66
2018-03-29T17:36:01.938Z,99939.26
2018-03-29T17:38:27.750Z,99949.55
2018-03-29T17:40:53.712Z,99951.54
2018-03-29T17:43:19.624Z,99955.09
2018-03-29T17:45:45.470Z,99960.37
2018-03-29T17:48:11.287Z,99968.09
2018-03-29T17:50:37.424Z,99970.82
2018-03-29T17:53:03.224Z,99976.86
2018-03-29T17:55:29.327Z,99987.20
2018-03-29T17:57:55.247Z,99985.15
2018-03-29T18:00:21.429Z,99988.99
2018-03-29T18:02:47.242Z,99991.30
2018-03-29T18:05:13.071Z,99990.36
2018-03-29T18:07:43.449Z,99994.46
2018-03-29T18:10:09.530Z,99993.82
2018-03-29T18:12:36.583Z,99979.45
2018-03-29T18:15:02.429Z,100000.41
2018-03-29T18:17:28.348Z,100005.03
2018-03-29T18:19:54.147Z,99999.04
2018-03-29T18:22:20.008Z,100008.52
2018-03-29T18:24:46.810Z,100008.69
2018-03-29T18:27:12.699Z,100008.66
2018-03-29T18:29:38.514Z,100017.33
2018-03-29T18:32:04.334Z,100018.78
2018-03-29T18:34:30.152Z,100019.95
2018-03-29T18:36:56.022Z,100024.13
2018-03-29T18:39:21.863Z,100029.78
2018-03-29T18:41:47.704Z,100037.94
2018-03-29T18:44:13.523Z,100036.75
2018-03-29T18:46:39.368Z,100043.44
2018-03-29T18:49:05.383Z,100050.84
2018-03-29T18:51:31.203Z,100053.19
2018-03-29T18:53:57.010Z,100055.50
2018-03-29T18:56:22.880Z,100054.89
2018-03-29T18:58:48.665Z,100061.61
2018-03-29T19:01:14.474Z,100064.23
2018-03-29T19:03:40.311Z,100060.05
2018-03-29T19:06:06.122Z,100063.87
2018-03-29T19:08:32.000Z,100070.64
2018-03-29T19:10:57.841Z,100077.92
2018-03-29T19:13:23.648Z,100083.77
2018-03-29T19:15:49.449Z,100081.11
2018-03-29T19:18:15.304Z,100087.80
2018-03-29T19:20:41.152Z,100091.02
2018-03-29T19:23:07.019Z,100089.30
2018-03-29T19:25:39.891Z,100094.25
2018-03-29T19:28:05.710Z,100093.33
2018-03-29T19:30:31.564Z,100088.17
2018-03-29T19:32:57.663Z,100092.30
2018-03-29T19:35:23.482Z,100092.84
2018-03-29T19:37:49.296Z,100090.64
2018-03-29T19:40:15.228Z,100090.16
2018-03-29T19:42:41.058Z,100089.52
2018-03-29T19:45:07.031Z,100090.22
2018-03-29T19:47:32.921Z,100095.51
2018-03-29T19:49:58.760Z,100090.66
2018-03-29T19:52:24.591Z,100093.42
2018-03-29T19:54:50.412Z,100103.48
2018-03-29T19:57:16.583Z,100101.11
2018-03-29T19:59:42.435Z,100109.93
2018-03-29T20:02:08.274Z,100112.86
2018-03-29T20:04:34.137Z,100114.04
2018-03-29T20:07:00.236Z,100107.67
2018-03-29T20:09:26.050Z,100109.30
2018-03-29T20:11:51.903Z,100110.81
2018-03-29T20:14:17.759Z,100111.63
2018-03-29T20:16:43.678Z,100113.55
2018-03-29T20:19:09.469Z,100111.62
2018-03-29T20:21:35.314Z,100120.39
2018-03-29T20:24:01.260Z,100117.90
2018-03-29T20:26:27.112Z,100124.62
2018-03-29T20:28:53.020Z,100131.02
2018-03-29T20:31:18.843Z,100128.92
2018-03-29T20:33:44.664Z,100139.48
2018-03-29T20:36:10.502Z,100151.12
2018-03-29T20:38:36.324Z,100149.52
2018-03-29T20:41:02.162Z,100158.87
2018-03-29T20:43:28.037Z,100159.00
2018-03-29T20:45:53.858Z,100160.09
2018-03-29T20:48:19.668Z,100155.56
2018-03-29T20:50:45.459Z,100157.20
2018-03-29T20:53:11.249Z,100160.36
2018-03-29T20:55:37.025Z,100162.39
2018-03-29T20:58:03.826Z,100160.58
2018-03-29T21:00:29.866Z,100165.83
2018-03-29T21:02:55.657Z,100164.72
2018-03-29T21:05:21.829Z,100168.64
2018-03-29T21:07:47.644Z,100164.65
2018-03-29T21:10:13.449Z,100170.17
2018-03-29T21:12:39.409Z,100170.36
2018-03-29T21:15:05.235Z,100166.05
2018-03-29T21:17:31.035Z,100174.24
2018-03-29T21:19:56.875Z,100170.66
2018-03-29T21:22:22.741Z,100165.63
2018-03-29T21:24:48.495Z,100167.53
2018-03-29T21:27:14.386Z,100160.23
2018-03-29T21:29:40.180Z,100163.14
2018-03-29T21:32:05.960Z,100167.09
2018-03-29T21:34:32.094Z,100178.88
2018-03-29T21:36:57.844Z,100178.53
2018-03-29T21:39:23.644Z,100180.22
2018-03-29T21:41:49.431Z,100188.11
2018-03-29T21:44:15.233Z,100189.50
2018-03-29T21:46:41.071Z,100189.20
2018-03-29T21:49:07.061Z,100185.55
2018-03-29T21:51:32.878Z,100186.45
2018-03-29T21:53:58.665Z,100178.14
2018-03-29T21:56:24.722Z,100169.13
2018-03-29T21:58:50.516Z,100176.16
2018-03-29T22:01:16.383Z,100174.62
2018-03-29T22:03:42.154Z,100179.95
2018-03-29T22:06:07.936Z,100180.55
2018-03-29T22:08:33.731Z,100182.70
2018-03-29T22:11:00.657Z,100174.35
2018-03-29T22:13:26.483Z,100176.60
2018-03-29T22:15:52.266Z,100179.06
2018-03-29T22:18:18.076Z,100175.38
2018-03-29T22:20:43.869Z,100174.07
2018-03-29T22:23:09.666Z,100171.17
2018-03-29T22:25:35.735Z,100180.08
2018-03-29T22:28:01.532Z,100185.19
2018-03-29T22:30:27.327Z,100189.41
2018-03-29T22:32:53.439Z,100200.41
2018-03-29T22:35:19.248Z,100212.55
2018-03-29T22:37:45.038Z,100214.86
2018-03-29T22:40:11.088Z,100208.31
2018-03-29T22:42:36.883Z,100209.77
2018-03-29T22:45:02.708Z,100206.20
2018-03-29T22:47:28.577Z,100205.33
2018-03-29T22:49:54.370Z,100206.58
2018-03-29T22:52:20.165Z,100215.02
2018-03-29T22:54:45.974Z,100210.50
2018-03-29T22:57:11.787Z,100218.64
2018-03-29T22:59:37.607Z,100222.19
2018-03-29T23:02:03.432Z,100223.65
2018-03-29T23:04:29.223Z,100230.58
2018-03-29T23:06:55.013Z,100235.75
2018-03-29T23:09:20.803Z,100242.23
2018-03-29T23:11:46.616Z,100237.88
2018-03-29T23:14:12.399Z,100224.00
2018-03-29T23:16:38.207Z,100221.10
2018-03-29T23:19:04.044Z,100220.94
2018-03-29T23:21:29.843Z,100228.94
2018-03-29T23:23:55.636Z,100224.06
2018-03-29T23:26:21.592Z,100226.32
2018-03-29T23:28:47.396Z,100235.52
2018-03-29T23:31:13.195Z,100238.69
2018-03-29T23:33:38.996Z,100238.44
2018-03-29T23:36:04.778Z,100237.73
2018-03-29T23:38:30.583Z,100234.94
2018-03-29T23:40:56.379Z,100230.51
2018-03-29T23:43:22.230Z,100231.10
2018-03-29T23:45:48.027Z,100230.65
2018-03-29T23:48:13.823Z,100235.61
2018-03-29T23:50:39.622Z,100237.23
2018-03-29T23:53:05.425Z,100233.44
2018-03-29T23:55:31.210Z,100225.80
2018-03-29T23:58:09.487Z,100230.58
